Time;durP1;ratioP1;P1;durP2;ratioP2;P2;SDS_P1;SDS_P2;PMS_P1;PMS_P2;Temp;Humidity;BMP_temperature;BMP_pressure;BME280_temperature;BME280_humidity;BME280_pressure;Samples;Min_cycle;Max_cycle;Signal;HPM_P1;HPM_P2
2022/05/24 00:00:14;;;;;;;3.10;2.40;;;15.80;99.90;;;;;;5110907;28;20181;-58
2022/05/24 00:02:41;;;;;;;2.93;2.53;;;15.80;99.90;;;;;;5113947;27;20461;-58
2022/05/24 00:05:08;;;;;;;7.10;3.13;;;15.80;99.90;;;;;;5106563;28;20485;-59
2022/05/24 00:07:35;;;;;;;6.03;2.67;;;15.80;99.90;;;;;;5109635;27;21117;-60
2022/05/24 00:10:02;;;;;;;6.03;3.27;;;15.80;99.90;;;;;;5109719;28;20463;-58
2022/05/24 00:12:28;;;;;;;2.30;2.10;;;15.80;99.90;;;;;;5111298;27;20454;-60
2022/05/24 00:17:48;;;;;;;2.73;2.47;;;15.80;99.90;;;;;;5109528;27;20960;-59
2022/05/24 00:20:13;;;;;;;5.73;2.60;;;15.70;99.90;;;;;;5106526;28;20808;-59
2022/05/24 00:22:39;;;;;;;4.87;2.60;;;15.70;99.90;;;;;;5113116;27;20443;-59
2022/05/24 00:25:05;;;;;;;5.37;3.00;;;15.70;99.90;;;;;;5102825;28;20253;-58
2022/05/24 00:27:31;;;;;;;7.53;2.60;;;15.70;99.90;;;;;;5108321;27;20185;-59
2022/05/24 00:29:57;;;;;;;4.23;3.00;;;15.70;99.90;;;;;;5113186;27;20438;-58
2022/05/24 00:32:23;;;;;;;3.93;3.13;;;15.70;99.90;;;;;;5105900;27;20297;-58
2022/05/24 00:34:49;;;;;;;5.40;3.20;;;15.70;99.90;;;;;;5106501;28;20757;-59
2022/05/24 00:37:18;;;;;;;3.43;2.73;;;15.60;99.90;;;;;;5106143;27;20431;-58
2022/05/24 00:39:44;;;;;;;4.27;2.70;;;15.60;99.90;;;;;;5112956;27;20427;-59
2022/05/24 00:42:19;;;;;;;5.07;2.20;;;15.60;99.90;;;;;;5106850;28;20964;-59
2022/05/24 00:45:15;;;;;;;2.60;2.40;;;15.60;99.90;;;;;;5108208;27;20203;-58
2022/05/24 00:47:41;;;;;;;3.20;2.10;;;15.50;99.90;;;;;;5104927;27;20928;-59
2022/05/24 00:50:11;;;;;;;3.47;2.13;;;15.50;99.90;;;;;;5109704;28;20430;-58
2022/05/24 00:52:58;;;;;;;5.00;2.50;;;15.50;99.90;;;;;;5107766;27;20285;-59
2022/05/24 00:55:25;;;;;;;3.00;2.70;;;15.50;99.90;;;;;;5107153;27;20561;-61
2022/05/24 00:57:57;;;;;;;4.40;2.60;;;15.50;99.90;;;;;;5108451;27;20427;-59
2022/05/24 01:00:23;;;;;;;3.33;2.20;;;15.40;99.90;;;;;;5107179;28;20414;-58
2022/05/24 01:02:49;;;;;;;4.50;2.10;;;15.40;99.90;;;;;;5104195;27;20450;-58
2022/05/24 01:05:25;;;;;;;3.93;2.30;;;15.40;99.90;;;;;;5110715;27;20462;-59
2022/05/24 01:07:51;;;;;;;7.33;2.77;;;15.40;99.90;;;;;;5091325;28;20469;-59
2022/05/24 01:10:43;;;;;;;4.17;2.60;;;15.40;99.90;;;;;;5109979;28;20434;-58
2022/05/24 01:13:19;;;;;;;3.53;1.80;;;15.30;99.90;;;;;;5101656;27;20562;-59
2022/05/24 01:15:45;;;;;;;6.93;2.40;;;15.30;99.90;;;;;;5104801;27;20881;-57
2022/05/24 01:18:14;;;;;;;3.47;2.37;;;15.30;99.90;;;;;;5108851;28;20506;-59
2022/05/24 01:20:44;;;;;;;3.37;1.90;;;15.30;99.90;;;;;;5101051;28;20189;-59
2022/05/24 01:23:32;;;;;;;3.33;2.07;;;15.30;99.90;;;;;;5106027;28;20450;-61
2022/05/24 01:26:16;;;;;;;9.73;2.67;;;15.20;99.90;;;;;;5080263;28;20532;-59
2022/05/24 01:28:50;;;;;;;5.37;2.57;;;15.20;99.90;;;;;;5101560;28;21136;-59
2022/05/24 01:31:17;;;;;;;5.50;2.40;;;15.20;99.90;;;;;;5090870;28;20857;-58
2022/05/24 01:36:31;;;;;;;8.13;2.50;;;15.20;99.90;;;;;;5102532;28;20604;-60
2022/05/24 01:39:04;;;;;;;2.47;1.97;;;15.20;99.90;;;;;;5105439;28;20506;-58
2022/05/24 01:41:40;;;;;;;8.97;2.10;;;15.10;99.90;;;;;;5088865;27;20430;-59
2022/05/24 01:44:07;;;;;;;5.30;2.57;;;15.10;99.90;;;;;;5104209;27;20446;-59
2022/05/24 01:46:39;;;;;;;3.73;2.27;;;15.10;99.90;;;;;;5104310;28;20523;-59
2022/05/24 01:49:17;;;;;;;3.27;2.33;;;15.10;99.90;;;;;;5116030;27;20433;-59
2022/05/24 01:52:04;;;;;;;3.10;2.53;;;15.10;99.90;;;;;;5113174;27;20608;-59
2022/05/24 01:54:34;;;;;;;4.27;2.40;;;15.10;99.90;;;;;;5099291;28;21015;-59
2022/05/24 01:57:05;;;;;;;5.20;2.63;;;15.10;99.90;;;;;;5086353;28;20430;-59
2022/05/24 01:59:32;;;;;;;5.60;2.13;;;15.10;99.90;;;;;;5102239;28;20419;-60
2022/05/24 02:01:59;;;;;;;5.47;2.67;;;15.10;99.90;;;;;;5113475;27;20427;-59
2022/05/24 02:04:29;;;;;;;4.20;2.37;;;15.10;99.90;;;;;;5110145;27;20529;-59
2022/05/24 02:07:25;;;;;;;2.90;2.37;;;15.00;99.90;;;;;;5103698;27;20418;-60
2022/05/24 02:09:53;;;;;;;4.37;2.60;;;15.00;99.90;;;;;;5092136;27;20559;-59
2022/05/24 02:12:23;;;;;;;4.77;2.27;;;15.00;99.90;;;;;;5113943;27;20459;-59
2022/05/24 02:14:57;;;;;;;4.03;2.23;;;15.00;99.90;;;;;;5108954;27;20446;-59
2022/05/24 02:17:47;;;;;;;3.30;2.50;;;15.00;99.90;;;;;;5109974;28;20447;-58
2022/05/24 02:20:20;;;;;;;2.20;2.00;;;15.00;99.90;;;;;;5109130;28;20494;-60
2022/05/24 02:22:47;;;;;;;3.40;2.37;;;14.90;99.90;;;;;;5109821;28;20423;-59
2022/05/24 02:25:31;;;;;;;3.73;2.50;;;14.90;99.90;;;;;;5107427;28;20488;-59
2022/05/24 02:27:56;;;;;;;4.33;2.90;;;14.90;99.90;;;;;;5105719;28;20431;-59
2022/05/24 02:30:25;;;;;;;4.17;2.47;;;14.90;99.90;;;;;;5103598;27;20423;-58
2022/05/24 02:32:51;;;;;;;5.47;2.60;;;14.90;99.90;;;;;;5108366;28;20712;-59
2022/05/24 02:35:17;;;;;;;4.07;2.50;;;14.90;99.90;;;;;;5108359;27;20451;-59
2022/05/24 02:37:44;;;;;;;7.53;2.60;;;14.90;99.90;;;;;;5107194;28;20259;-59
2022/05/24 02:42:55;;;;;;;3.20;2.90;;;14.90;99.90;;;;;;5107892;28;20445;-59
2022/05/24 02:45:20;;;;;;;3.90;2.73;;;14.80;99.90;;;;;;5104764;27;20966;-59
2022/05/24 02:47:46;;;;;;;3.47;2.90;;;14.80;99.90;;;;;;5085622;28;20638;-59
2022/05/24 02:50:12;;;;;;;3.70;2.50;;;14.80;99.90;;;;;;5107423;27;20177;-59
2022/05/24 02:52:39;;;;;;;5.90;2.50;;;14.80;99.90;;;;;;5093174;28;20203;-59
2022/05/24 02:55:06;;;;;;;7.53;2.67;;;14.80;99.90;;;;;;5108305;28;20523;-59
2022/05/24 02:57:32;;;;;;;6.23;2.80;;;14.80;99.90;;;;;;5114423;27;20426;-57
2022/05/24 02:59:57;;;;;;;3.20;2.23;;;14.80;99.90;;;;;;5106215;28;20415;-60
2022/05/24 03:02:23;;;;;;;5.00;2.93;;;14.80;99.90;;;;;;5107528;27;20253;-61
2022/05/24 03:04:48;;;;;;;2.97;2.63;;;14.70;99.90;;;;;;5104334;28;20192;-60
2022/05/24 03:09:58;;;;;;;12.20;3.00;;;14.70;99.90;;;;;;5091070;28;20236;-59
2022/05/24 03:15:08;;;;;;;3.73;2.53;;;14.70;99.90;;;;;;5094191;28;20783;-60
2022/05/24 03:17:34;;;;;;;4.97;2.77;;;14.70;99.90;;;;;;5098471;28;20431;-59
2022/05/24 03:20:00;;;;;;;3.00;2.70;;;14.70;99.90;;;;;;5098669;28;20786;-59
2022/05/24 03:22:25;;;;;;;6.13;2.50;;;14.70;99.90;;;;;;5107946;28;20443;-58
2022/05/24 03:24:51;;;;;;;6.97;2.90;;;14.70;99.90;;;;;;5104018;28;20729;-59
2022/05/24 03:27:17;;;;;;;3.50;3.03;;;14.70;99.90;;;;;;5107541;28;20176;-59
2022/05/24 03:29:45;;;;;;;7.30;3.10;;;14.70;99.90;;;;;;5090572;28;20185;-60
2022/05/24 03:32:12;;;;;;;4.10;2.90;;;14.70;99.90;;;;;;5104400;28;20480;-59
2022/05/24 03:34:39;;;;;;;13.13;6.00;;;14.70;99.90;;;;;;5107975;28;20531;-59
2022/05/24 03:37:06;;;;;;;3.37;3.07;;;14.70;99.90;;;;;;5099220;28;20916;-59
2022/05/24 03:39:33;;;;;;;4.90;3.13;;;14.70;99.90;;;;;;5107139;28;20425;-59
2022/05/24 03:41:58;;;;;;;2.90;2.60;;;14.70;99.90;;;;;;5108056;28;20502;-58
2022/05/24 03:44:24;;;;;;;3.77;3.37;;;14.70;99.90;;;;;;5107123;28;20845;-59
2022/05/24 03:46:51;;;;;;;4.07;3.20;;;14.70;99.90;;;;;;5106729;28;20608;-59
2022/05/24 03:49:17;;;;;;;3.50;3.20;;;14.70;99.90;;;;;;5101064;28;20786;-59
2022/05/24 03:51:42;;;;;;;3.30;3.00;;;14.70;99.90;;;;;;5102069;28;20407;-58
2022/05/24 03:54:08;;;;;;;4.50;3.90;;;14.70;99.90;;;;;;5099928;28;20205;-53
2022/05/24 03:56:35;;;;;;;4.47;3.33;;;14.70;99.90;;;;;;5100915;28;20272;-54
2022/05/24 03:59:00;;;;;;;5.87;4.00;;;14.80;99.90;;;;;;5107676;28;20422;-54
2022/05/24 04:01:26;;;;;;;3.90;3.40;;;14.80;99.90;;;;;;5094093;28;20426;-55
2022/05/24 04:03:53;;;;;;;6.43;3.70;;;14.80;99.90;;;;;;5101402;28;20243;-55
2022/05/24 04:06:18;;;;;;;4.50;3.17;;;14.80;99.90;;;;;;5100785;28;20550;-54
2022/05/24 04:08:45;;;;;;;5.10;3.00;;;14.80;99.90;;;;;;5099030;28;20449;-56
2022/05/24 04:11:12;;;;;;;6.53;3.43;;;14.80;99.90;;;;;;5096817;28;20173;-56
2022/05/24 04:13:40;;;;;;;5.20;3.50;;;14.70;99.90;;;;;;5097962;28;20835;-55
2022/05/24 04:16:06;;;;;;;6.43;3.00;;;14.80;99.90;;;;;;5100401;28;20514;-55
2022/05/24 04:18:32;;;;;;;8.13;3.23;;;14.80;99.90;;;;;;5099421;28;21551;-60
2022/05/24 04:20:58;;;;;;;4.03;2.40;;;14.80;99.90;;;;;;5101095;28;20438;-61
2022/05/24 04:23:25;;;;;;;5.93;3.10;;;14.80;99.90;;;;;;5097032;28;20201;-60
2022/05/24 04:25:52;;;;;;;6.60;3.30;;;14.70;99.90;;;;;;5085690;28;20173;-62
2022/05/24 04:28:18;;;;;;;4.30;2.97;;;14.80;99.90;;;;;;5084310;28;20480;-60
2022/05/24 04:30:48;;;;;;;6.90;3.73;;;14.80;99.90;;;;;;5092555;28;20439;-60
2022/05/24 04:33:15;;;;;;;3.23;2.60;;;14.70;99.90;;;;;;5079286;28;20461;-60
2022/05/24 04:35:41;;;;;;;4.50;2.83;;;14.70;99.90;;;;;;5081564;28;20483;-55
2022/05/24 04:38:07;;;;;;;3.83;2.50;;;14.70;99.90;;;;;;5100952;28;20683;-61
2022/05/24 04:43:16;;;;;;;7.20;2.90;;;14.70;99.90;;;;;;5105220;28;20225;-62
2022/05/24 04:45:42;;;;;;;6.17;2.73;;;14.70;99.90;;;;;;5095605;28;20430;-60
2022/05/24 04:48:08;;;;;;;4.53;2.20;;;14.70;99.90;;;;;;5107259;28;20173;-60
2022/05/24 04:50:34;;;;;;;3.57;2.40;;;14.70;99.90;;;;;;5097770;27;20758;-61
2022/05/24 04:53:00;;;;;;;7.13;3.60;;;14.70;99.90;;;;;;5103109;28;20208;-60
2022/05/24 04:55:28;;;;;;;6.57;2.67;;;14.70;99.90;;;;;;5100989;27;20431;-62
2022/05/24 04:57:55;;;;;;;6.33;3.00;;;14.70;99.90;;;;;;5106284;28;20454;-60
2022/05/24 05:00:22;;;;;;;3.60;3.00;;;14.70;99.90;;;;;;5108548;27;20923;-60
2022/05/24 05:02:47;;;;;;;5.00;2.80;;;14.70;99.90;;;;;;5108604;28;20814;-60
2022/05/24 05:05:15;;;;;;;5.47;3.20;;;14.70;99.90;;;;;;5106512;28;20454;-60
2022/05/24 05:07:42;;;;;;;3.37;2.33;;;14.70;99.90;;;;;;5112360;28;20187;-60
2022/05/24 05:10:09;;;;;;;6.40;2.73;;;14.70;99.90;;;;;;5092352;28;20431;-60
2022/05/24 05:12:35;;;;;;;3.50;2.77;;;14.80;99.90;;;;;;5112584;27;20453;-60
2022/05/24 05:15:01;;;;;;;3.83;2.07;;;14.80;99.90;;;;;;5110719;28;20439;-61
2022/05/24 05:17:26;;;;;;;3.13;2.20;;;14.80;99.90;;;;;;5107816;28;20438;-60
2022/05/24 05:19:53;;;;;;;3.93;2.20;;;14.80;99.90;;;;;;5108217;28;20693;-59
2022/05/24 05:22:18;;;;;;;8.03;2.30;;;14.80;99.90;;;;;;5107727;28;20304;-60
2022/05/24 05:24:44;;;;;;;2.30;2.10;;;14.80;99.90;;;;;;5109151;28;20537;-60
2022/05/24 05:27:10;;;;;;;4.63;2.20;;;14.80;99.90;;;;;;5108664;28;20261;-60
2022/05/24 05:32:22;;;;;;;8.80;2.23;;;14.80;99.90;;;;;;5106185;28;20212;-60
2022/05/24 05:34:48;;;;;;;3.87;2.40;;;14.80;99.90;;;;;;5091611;28;20446;-61
2022/05/24 05:37:15;;;;;;;2.20;2.00;;;14.70;99.90;;;;;;5101341;28;20977;-60
2022/05/24 05:39:41;;;;;;;6.57;2.47;;;14.80;99.90;;;;;;5086100;28;20843;-60
2022/05/24 05:42:07;;;;;;;6.93;2.47;;;14.80;99.90;;;;;;5107336;28;20451;-60
2022/05/24 05:44:32;;;;;;;6.80;2.60;;;14.90;99.90;;;;;;5107051;28;20969;-60
2022/05/24 05:46:58;;;;;;;3.03;2.23;;;14.90;99.90;;;;;;5109667;27;20427;-60
2022/05/24 05:49:24;;;;;;;4.53;2.20;;;14.90;99.90;;;;;;5106724;28;20195;-58
2022/05/24 05:51:50;;;;;;;9.10;2.57;;;14.90;99.90;;;;;;5106703;28;20272;-60
2022/05/24 05:54:16;;;;;;;2.87;2.47;;;15.00;99.90;;;;;;5102286;28;20779;-60
2022/05/24 05:56:42;;;;;;;3.73;2.30;;;15.10;99.90;;;;;;5109995;28;20169;-60
2022/05/24 05:59:08;;;;;;;5.37;2.43;;;15.10;99.90;;;;;;5093324;28;20458;-60
2022/05/24 06:01:33;;;;;;;6.30;1.87;;;15.10;99.90;;;;;;5110224;27;20423;-60
2022/05/24 06:04:00;;;;;;;3.23;1.77;;;15.20;99.90;;;;;;5106547;28;20874;-61
2022/05/24 06:06:33;;;;;;;5.50;2.10;;;15.20;99.90;;;;;;5108686;28;20809;-60
2022/05/24 06:08:59;;;;;;;3.67;2.03;;;15.20;99.90;;;;;;5110753;28;20480;-61
2022/05/24 06:11:25;;;;;;;5.00;1.90;;;15.10;99.90;;;;;;5109256;27;20431;-60
2022/05/24 06:13:51;;;;;;;2.80;2.27;;;15.10;99.90;;;;;;5105979;27;20249;-60
2022/05/24 06:16:17;;;;;;;3.20;2.10;;;15.10;99.90;;;;;;5107954;28;20207;-60
2022/05/24 06:18:43;;;;;;;2.43;1.80;;;15.10;99.90;;;;;;5111251;28;21059;-59
2022/05/24 06:21:09;;;;;;;5.80;1.97;;;15.10;99.90;;;;;;5103889;28;20451;-60
2022/05/24 06:23:34;;;;;;;3.30;1.87;;;15.20;99.90;;;;;;5110412;28;20254;-60
2022/05/24 06:26:00;;;;;;;7.87;2.87;;;15.30;99.90;;;;;;5107702;28;20173;-61
2022/05/24 06:28:26;;;;;;;3.83;1.77;;;15.40;99.90;;;;;;5091211;28;20180;-60
2022/05/24 06:30:52;;;;;;;5.20;1.60;;;15.50;99.90;;;;;;5107981;27;20180;-60
2022/05/24 06:33:17;;;;;;;4.20;2.47;;;15.60;99.90;;;;;;5110108;28;20999;-59
2022/05/24 06:35:44;;;;;;;2.50;2.30;;;15.60;99.90;;;;;;5106412;28;20227;-60
2022/05/24 06:38:10;;;;;;;7.03;2.67;;;15.70;99.90;;;;;;5108418;28;20173;-60
2022/05/24 06:40:37;;;;;;;2.40;1.80;;;15.80;99.90;;;;;;5108164;28;20432;-59
2022/05/24 06:43:03;;;;;;;2.90;1.73;;;15.80;99.90;;;;;;5108713;28;20580;-61
2022/05/24 06:45:30;;;;;;;2.80;1.83;;;15.70;99.90;;;;;;5101613;28;20530;-60
2022/05/24 06:47:55;;;;;;;1.97;1.73;;;15.70;99.90;;;;;;5088184;28;20514;-59
2022/05/24 06:50:21;;;;;;;2.53;2.10;;;15.70;99.90;;;;;;5107671;28;20584;-60
2022/05/24 06:52:51;;;;;;;6.77;2.03;;;15.70;99.90;;;;;;5090834;28;20208;-61
2022/05/24 06:55:17;;;;;;;3.70;2.17;;;15.70;99.90;;;;;;5099630;28;20784;-59
2022/05/24 06:57:43;;;;;;;2.33;1.93;;;15.60;99.90;;;;;;5098195;28;20427;-61
2022/05/24 07:03:04;;;;;;;3.80;1.90;;;15.40;99.90;;;;;;5104417;28;20237;-60
2022/05/24 07:05:30;;;;;;;3.30;2.10;;;15.40;99.90;;;;;;5106341;28;20954;-60
2022/05/24 07:07:57;;;;;;;3.53;2.20;;;15.30;99.90;;;;;;5108326;28;20411;-61
2022/05/24 07:10:23;;;;;;;5.03;2.37;;;15.20;99.90;;;;;;5109996;28;20173;-58
2022/05/24 07:13:08;;;;;;;3.30;1.93;;;15.10;99.90;;;;;;5106489;28;20458;-60
2022/05/24 07:15:34;;;;;;;6.47;1.97;;;15.10;99.90;;;;;;5106471;28;20522;-60
2022/05/24 07:18:01;;;;;;;4.40;1.60;;;15.00;99.90;;;;;;5090104;28;21007;-61
2022/05/24 07:20:28;;;;;;;1.40;1.30;;;15.00;99.90;;;;;;5101063;28;20598;-60
2022/05/24 07:22:54;;;;;;;2.63;1.73;;;15.00;99.90;;;;;;5102881;28;20445;-60
2022/05/24 07:25:21;;;;;;;4.87;2.10;;;15.00;99.90;;;;;;5108418;28;20998;-60
2022/05/24 07:27:47;;;;;;;3.77;1.73;;;15.00;99.90;;;;;;5105673;28;20431;-60
2022/05/24 07:30:13;;;;;;;2.20;1.30;;;15.20;99.90;;;;;;5107768;28;20441;-61
2022/05/24 07:32:38;;;;;;;3.13;1.60;;;15.30;99.90;;;;;;5106997;28;20290;-61
2022/05/24 07:35:05;;;;;;;1.20;1.10;;;15.40;99.90;;;;;;5108578;28;20543;-60
2022/05/24 07:37:31;;;;;;;1.53;1.10;;;15.40;99.90;;;;;;5087995;28;20169;-60
2022/05/24 07:48:09;;;;;;;0.90;0.70;;;14.60;99.90;;;;;;5100084;28;20484;-60
2022/05/24 07:50:35;;;;;;;0.80;0.80;;;14.50;99.90;;;;;;5103591;28;20430;-59
2022/05/24 07:53:02;;;;;;;0.80;0.80;;;14.40;99.90;;;;;;5101821;28;20262;-59
2022/05/24 07:55:28;;;;;;;2.17;0.83;;;14.40;99.90;;;;;;5104621;28;20423;-59
2022/05/24 07:57:53;;;;;;;0.70;0.70;;;14.40;99.90;;;;;;5104431;28;20430;-59
2022/05/24 08:00:20;;;;;;;1.03;0.80;;;14.40;99.90;;;;;;5106240;28;20176;-59
2022/05/24 08:02:49;;;;;;;0.70;0.70;;;14.30;99.90;;;;;;5104089;28;20174;-59
2022/05/24 08:05:16;;;;;;;1.13;1.03;;;14.30;99.90;;;;;;5084993;28;21005;-59
2022/05/24 08:07:42;;;;;;;1.00;0.90;;;14.30;99.90;;;;;;5107526;28;20479;-59
2022/05/24 08:10:08;;;;;;;0.87;0.70;;;14.20;99.90;;;;;;5105105;28;20946;-58
2022/05/24 08:12:34;;;;;;;2.70;0.90;;;14.20;99.90;;;;;;5101908;28;21135;-60
2022/05/24 08:14:59;;;;;;;1.10;1.00;;;14.20;99.90;;;;;;5106132;28;20555;-59
2022/05/24 08:17:26;;;;;;;1.93;0.90;;;14.20;99.90;;;;;;5108432;28;20169;-60
2022/05/24 08:19:52;;;;;;;0.90;0.80;;;14.20;99.90;;;;;;5107732;28;20177;-59
2022/05/24 08:22:19;;;;;;;2.07;0.80;;;14.20;99.90;;;;;;5107632;28;20801;-59
2022/05/24 08:24:45;;;;;;;0.80;0.70;;;14.20;99.90;;;;;;5109541;28;20457;-58
2022/05/24 08:27:14;;;;;;;1.10;1.00;;;14.30;99.90;;;;;;5110826;28;20514;-62
2022/05/24 08:29:40;;;;;;;0.97;0.90;;;14.30;99.90;;;;;;5108636;28;20431;-60
2022/05/24 08:32:07;;;;;;;0.80;0.80;;;14.50;99.90;;;;;;5108667;28;20430;-60
2022/05/24 08:34:32;;;;;;;0.90;0.80;;;14.50;99.90;;;;;;5110270;28;20507;-59
2022/05/24 08:36:59;;;;;;;0.80;0.80;;;14.60;99.90;;;;;;5109149;28;20512;-59
2022/05/24 08:39:25;;;;;;;1.90;0.70;;;14.50;99.90;;;;;;5109688;28;20650;-60
2022/05/24 08:41:56;;;;;;;1.00;0.70;;;14.40;99.90;;;;;;5112154;28;20403;-59
2022/05/24 08:50:13;;;;;;;1.23;1.00;;;14.30;98.20;;;;;;5110332;28;20487;-60
2022/05/24 08:52:46;;;;;;;1.00;0.90;;;14.30;99.30;;;;;;5107601;27;20545;-59
2022/05/24 08:55:13;;;;;;;0.97;0.93;;;14.40;97.30;;;;;;5106676;28;20442;-61
2022/05/24 08:57:47;;;;;;;5.03;0.90;;;14.50;95.60;;;;;;5108308;28;20841;-60
2022/05/24 09:00:17;;;;;;;4.60;0.90;;;14.60;94.30;;;;;;5110122;28;20821;-60
2022/05/24 09:02:45;;;;;;;1.60;0.83;;;14.70;92.80;;;;;;5104870;28;20925;-60
2022/05/24 09:05:25;;;;;;;0.87;0.87;;;14.70;94.80;;;;;;5106188;28;20440;-62
2022/05/24 09:08:21;;;;;;;1.10;1.00;;;14.80;94.70;;;;;;5100272;28;20449;-60
2022/05/24 09:10:53;;;;;;;1.27;0.90;;;14.80;91.00;;;;;;5092178;28;20494;-59
2022/05/24 09:13:34;;;;;;;0.90;0.90;;;14.80;90.10;;;;;;5091877;28;20501;-60
2022/05/24 09:16:10;;;;;;;1.57;0.90;;;14.90;92.30;;;;;;5099201;28;20426;-61
2022/05/24 09:18:47;;;;;;;2.30;1.03;;;15.00;93.80;;;;;;5095649;28;20400;-60
2022/05/24 09:21:25;;;;;;;1.10;0.83;;;15.10;93.80;;;;;;5100894;28;20426;-61
2022/05/24 09:23:58;;;;;;;1.00;1.00;;;15.30;95.20;;;;;;5103929;28;20500;-60
2022/05/24 09:26:24;;;;;;;2.83;1.40;;;15.40;90.40;;;;;;5091067;28;20538;-60
2022/05/24 09:28:58;;;;;;;1.10;1.00;;;15.50;83.40;;;;;;5103929;28;21128;-60
2022/05/24 09:31:48;;;;;;;2.20;1.00;;;15.60;78.80;;;;;;5107272;28;20486;-61
2022/05/24 09:34:17;;;;;;;1.43;1.00;;;15.80;74.10;;;;;;5097808;28;20979;-60
2022/05/24 09:36:55;;;;;;;1.80;1.30;;;15.90;72.30;;;;;;5102902;28;20445;-60
2022/05/24 09:39:33;;;;;;;1.10;0.83;;;16.10;75.80;;;;;;5108326;28;20977;-59
2022/05/24 09:42:23;;;;;;;2.03;1.10;;;16.50;76.30;;;;;;5112582;27;20474;-60
2022/05/24 09:44:58;;;;;;;1.60;0.90;;;16.70;72.10;;;;;;5106626;28;20446;-61
2022/05/24 09:47:30;;;;;;;1.13;1.03;;;16.80;67.30;;;;;;5091718;28;20434;-61
2022/05/24 09:50:29;;;;;;;1.43;1.07;;;16.80;63.50;;;;;;5108570;28;21137;-60
2022/05/24 09:53:12;;;;;;;0.90;0.87;;;16.70;58.50;;;;;;5096520;28;20557;-60
2022/05/24 09:56:02;;;;;;;0.97;0.90;;;16.70;57.00;;;;;;5110162;28;20521;-60
2022/05/24 09:58:35;;;;;;;1.00;0.90;;;16.60;59.70;;;;;;5110660;28;20576;-61
2022/05/24 10:01:13;;;;;;;1.80;1.10;;;16.60;57.20;;;;;;5104202;28;20431;-61
2022/05/24 10:03:49;;;;;;;3.00;1.00;;;16.60;60.80;;;;;;5093960;28;20450;-61
2022/05/24 10:06:25;;;;;;;0.80;0.80;;;16.70;63.90;;;;;;5103764;28;20427;-58
2022/05/24 10:08:54;;;;;;;1.00;1.00;;;16.80;59.40;;;;;;5102143;28;20784;-58
2022/05/24 10:11:47;;;;;;;0.90;0.90;;;17.10;56.30;;;;;;5099884;28;21172;-58
2022/05/24 10:14:38;;;;;;;2.07;1.20;;;17.30;54.90;;;;;;5103697;27;20470;-58
2022/05/24 10:17:37;;;;;;;2.20;1.00;;;17.40;54.50;;;;;;5098861;27;21032;-59
2022/05/24 10:20:29;;;;;;;1.80;1.00;;;17.40;53.90;;;;;;5098062;28;20515;-59
2022/05/24 10:23:19;;;;;;;1.00;0.90;;;17.60;54.30;;;;;;5101704;28;20435;-59
2022/05/24 10:26:03;;;;;;;0.80;0.80;;;17.70;54.00;;;;;;5101721;28;20439;-60
2022/05/24 10:28:55;;;;;;;3.90;1.00;;;17.90;53.90;;;;;;5099972;28;20438;-60
2022/05/24 10:31:32;;;;;;;3.37;1.00;;;18.10;53.00;;;;;;5100954;28;20437;-61
2022/05/24 10:40:34;;;;;;;2.17;0.90;;;18.40;50.50;;;;;;5099283;28;20498;-62
2022/05/24 10:43:18;;;;;;;1.40;1.07;;;18.20;49.80;;;;;;5106924;28;20866;-61
2022/05/24 10:45:51;;;;;;;0.90;0.90;;;18.00;50.30;;;;;;5098886;28;20447;-61
2022/05/24 10:48:43;;;;;;;1.77;0.70;;;18.00;52.40;;;;;;5103400;28;20539;-61
2022/05/24 10:51:53;;;;;;;0.87;0.80;;;18.00;51.70;;;;;;5098686;27;20594;-61
2022/05/24 10:54:40;;;;;;;4.03;0.77;;;18.00;50.70;;;;;;5039558;28;20586;-57
2022/05/24 10:57:19;;;;;;;1.00;0.90;;;17.90;48.50;;;;;;5103562;28;20460;-62
2022/05/24 10:59:45;;;;;;;1.23;0.93;;;17.80;49.00;;;;;;5106016;28;21118;-62
2022/05/24 11:02:20;;;;;;;1.43;0.90;;;17.80;51.20;;;;;;5108950;28;20417;-61
2022/05/24 11:04:52;;;;;;;1.00;0.90;;;17.80;50.60;;;;;;5100270;27;20200;-61
2022/05/24 11:07:20;;;;;;;1.50;0.90;;;17.70;50.60;;;;;;5100623;28;20430;-60
2022/05/24 11:10:17;;;;;;;1.60;1.17;;;17.80;51.80;;;;;;5106813;28;20470;-60
2022/05/24 11:12:49;;;;;;;1.13;0.90;;;17.80;48.50;;;;;;5092291;28;20470;-61
2022/05/24 11:15:23;;;;;;;4.33;0.80;;;17.70;48.10;;;;;;5087249;28;20451;-60
2022/05/24 11:17:49;;;;;;;0.70;0.70;;;17.80;48.70;;;;;;5086789;28;20502;-61
2022/05/24 11:20:22;;;;;;;1.33;0.83;;;17.80;48.50;;;;;;5102411;28;20539;-62
2022/05/24 11:23:10;;;;;;;2.07;1.00;;;17.80;48.50;;;;;;5082127;28;20476;-61
2022/05/24 11:25:44;;;;;;;1.00;0.90;;;17.90;48.10;;;;;;5096344;28;20586;-61
2022/05/24 11:28:24;;;;;;;1.57;1.17;;;17.90;47.50;;;;;;5082701;28;20442;-61
2022/05/24 11:30:51;;;;;;;2.13;1.10;;;17.80;47.90;;;;;;5101562;28;20463;-60
2022/05/24 11:33:35;;;;;;;2.03;0.80;;;17.80;49.20;;;;;;5102115;28;20465;-60
2022/05/24 11:36:21;;;;;;;1.00;0.90;;;17.80;49.90;;;;;;5097044;28;20446;-60
2022/05/24 11:38:49;;;;;;;0.80;0.80;;;17.80;48.50;;;;;;5101069;28;20484;-61
2022/05/24 11:41:34;;;;;;;2.90;1.10;;;17.80;47.70;;;;;;5098840;28;20438;-61
2022/05/24 11:44:05;;;;;;;5.23;0.90;;;17.80;46.10;;;;;;5086928;28;20553;-60
2022/05/24 11:46:34;;;;;;;2.27;1.40;;;17.60;46.10;;;;;;5100944;28;20426;-61
2022/05/24 11:49:21;;;;;;;1.23;0.83;;;17.50;47.50;;;;;;5103606;28;20507;-61
2022/05/24 11:51:52;;;;;;;1.97;1.10;;;17.50;48.00;;;;;;5061426;28;20447;-61
2022/05/24 11:54:18;;;;;;;2.43;1.00;;;17.50;48.60;;;;;;5093303;28;20467;-61
2022/05/24 11:56:53;;;;;;;4.10;1.07;;;17.50;48.20;;;;;;5097637;28;20443;-61
2022/05/24 11:59:40;;;;;;;1.83;1.33;;;17.40;47.30;;;;;;5108051;28;20175;-60
2022/05/24 12:02:32;;;;;;;2.20;0.90;;;17.30;47.80;;;;;;5103947;28;20427;-61
2022/05/24 12:08:37;;;;;;;3.63;0.80;;;17.20;48.90;;;;;;5101745;28;20453;-60
2022/05/24 12:11:05;;;;;;;2.20;1.00;;;17.40;49.40;;;;;;5106361;27;20441;-61
2022/05/24 12:13:46;;;;;;;1.40;1.10;;;17.60;49.50;;;;;;5101710;27;20781;-61
2022/05/24 12:16:30;;;;;;;2.50;1.20;;;17.80;48.50;;;;;;5108800;27;20402;-60
2022/05/24 12:18:59;;;;;;;1.30;1.07;;;18.00;48.30;;;;;;5106359;28;20468;-60
2022/05/24 12:22:00;;;;;;;0.90;0.90;;;18.20;47.90;;;;;;5103622;28;20446;-62
2022/05/24 12:24:28;;;;;;;1.17;0.90;;;18.20;48.10;;;;;;5097182;27;20458;-61
2022/05/24 12:27:28;;;;;;;1.10;1.00;;;18.30;48.70;;;;;;5101892;27;20437;-62
2022/05/24 12:30:00;;;;;;;1.50;1.10;;;18.40;48.30;;;;;;5102611;27;20446;-62
2022/05/24 12:32:30;;;;;;;1.20;1.10;;;18.40;48.00;;;;;;5102330;27;20484;-62
2022/05/24 12:35:06;;;;;;;1.37;0.80;;;18.50;47.60;;;;;;5100413;27;22436;-62
2022/05/24 12:37:35;;;;;;;2.93;0.80;;;18.60;47.70;;;;;;5100537;28;20431;-61
2022/05/24 12:40:07;;;;;;;1.27;0.90;;;18.60;48.10;;;;;;5100165;28;20422;-62
2022/05/24 12:42:33;;;;;;;1.43;0.90;;;18.60;47.60;;;;;;5097942;28;20427;-61
2022/05/24 12:45:05;;;;;;;1.63;0.83;;;18.50;47.50;;;;;;5089226;28;20443;-62
2022/05/24 12:47:31;;;;;;;1.17;0.90;;;18.40;48.40;;;;;;5105375;27;20172;-62
2022/05/24 12:49:58;;;;;;;1.13;1.03;;;18.20;48.60;;;;;;5102146;28;20431;-62
2022/05/24 12:52:24;;;;;;;0.80;0.80;;;18.10;48.50;;;;;;5101329;28;20252;-62
2022/05/24 12:55:01;;;;;;;4.10;1.00;;;17.90;49.00;;;;;;5102186;28;20480;-62
2022/05/24 12:57:39;;;;;;;5.43;1.03;;;17.80;49.40;;;;;;5094577;28;20173;-61
2022/05/24 13:00:09;;;;;;;1.90;1.10;;;17.70;49.80;;;;;;5098368;28;20426;-59
2022/05/24 13:02:43;;;;;;;1.00;1.00;;;17.50;51.90;;;;;;5103254;28;20481;-62
2022/05/24 13:05:20;;;;;;;0.87;0.87;;;17.40;53.20;;;;;;5102902;27;20548;-61
2022/05/24 13:07:55;;;;;;;14.17;1.33;;;17.30;53.90;;;;;;5101757;28;20426;-62
2022/05/24 13:10:23;;;;;;;1.70;0.97;;;17.30;54.90;;;;;;5100677;28;20462;-62
2022/05/24 13:12:54;;;;;;;0.90;0.90;;;17.20;56.50;;;;;;5102768;28;20465;-61
2022/05/24 13:15:25;;;;;;;1.30;1.07;;;17.30;58.90;;;;;;5096525;28;20447;-59
2022/05/24 13:18:02;;;;;;;4.07;1.20;;;17.40;61.80;;;;;;5066198;28;20441;-59
2022/05/24 13:20:38;;;;;;;1.67;1.17;;;17.50;63.90;;;;;;5093438;28;20467;-58
2022/05/24 13:23:32;;;;;;;7.73;1.33;;;17.60;65.80;;;;;;5097404;28;22134;-58
2022/05/24 13:26:04;;;;;;;1.13;1.03;;;17.60;67.50;;;;;;5100807;28;20434;-58
2022/05/24 13:28:56;;;;;;;1.20;1.10;;;17.60;65.50;;;;;;5102486;28;20428;-57
2022/05/24 13:34:30;;;;;;;4.27;1.30;;;17.50;70.20;;;;;;5100009;28;20519;-58
2022/05/24 13:36:57;;;;;;;6.80;1.50;;;17.50;70.20;;;;;;5088550;28;20434;-58
2022/05/24 13:39:35;;;;;;;8.40;1.70;;;17.50;70.30;;;;;;5102902;28;20427;-57
2022/05/24 13:42:08;;;;;;;7.20;1.57;;;17.50;71.90;;;;;;5109651;28;20418;-58
2022/05/24 13:44:36;;;;;;;4.97;2.27;;;17.50;74.00;;;;;;5094493;28;20475;-58
2022/05/24 13:47:21;;;;;;;2.33;1.43;;;17.50;75.10;;;;;;5112255;28;20986;-57
2022/05/24 13:49:48;;;;;;;3.40;1.60;;;17.60;79.00;;;;;;5111935;28;20532;-58
2022/05/24 13:52:27;;;;;;;2.47;1.20;;;17.80;77.40;;;;;;5103624;28;21020;-57
2022/05/24 13:55:33;;;;;;;2.83;1.40;;;18.10;74.60;;;;;;5110418;28;20527;-57